KAL767 UZTT-RKSI
Flight info
| Callsign | KAL767 |
|---|---|
| Flight time | N/A |
| Altitude | 37000 |
| Route | TISIB2C TISIB P984 IZIMA L135 TIRBA M610 RULAD/K0896S1130 A343 POSOT B215 FKG W188 LIKMI W270 DKO W69 MOSPA/K0885S1190 W69 HUR B339 LADIX W34 VAPGU W100 ORAVA W201 UNSEK A326 DONVO G597 AGAVO/N0485F390 Y644 REBIT REBIT2H |
| Aircraft | B77W/H-SDE1E2E3FGHIJ2J3J4J5M1RWXY/LB1D1 |
Departure
| Time | 2026-05-04 10:49 |
|---|---|
| Airport | Tashkent International Airport (UZTT) |
Arrival
| Time | N/A |
|---|---|
| Airport | Incheon International Airport (RKSI) |
| Time | Latitude | Longitude | Altitude | Speed | Heading |
|---|---|---|---|---|---|
| 2026-05-04 09:57 | 41.26209 | 69.27314 | 1428 ft | 0 kts | 81° |
| 2026-05-04 10:36 | 41.26209 | 69.27313 | 1428 ft | 0 kts | 81° |
| 2026-05-04 10:36 | 41.26208 | 69.27307 | 1428 ft | 2 kts | 87° |
| 2026-05-04 10:37 | 41.26207 | 69.27287 | 1428 ft | 2 kts | 72° |
| 2026-05-04 10:37 | 41.26201 | 69.27269 | 1428 ft | 2 kts | 62° |
| 2026-05-04 10:37 | 41.26194 | 69.27252 | 1428 ft | 2 kts | 55° |
| 2026-05-04 10:37 | 41.26185 | 69.27236 | 1428 ft | 2 kts | 47° |
| 2026-05-04 10:39 | 41.26140 | 69.27152 | 1428 ft | 2 kts | 119° |
| 2026-05-04 10:39 | 41.26149 | 69.27138 | 1428 ft | 1 kts | 144° |
| 2026-05-04 10:39 | 41.26151 | 69.27135 | 1428 ft | 0 kts | 144° |
| 2026-05-04 10:42 | 41.26151 | 69.27136 | 1427 ft | 0 kts | 144° |
| 2026-05-04 10:42 | 41.26097 | 69.27200 | 1427 ft | 15 kts | 137° |
| 2026-05-04 10:42 | 41.26071 | 69.27277 | 1428 ft | 7 kts | 90° |
| 2026-05-04 10:42 | 41.26077 | 69.27345 | 1428 ft | 8 kts | 80° |
| 2026-05-04 10:43 | 41.26095 | 69.27501 | 1428 ft | 22 kts | 83° |
| 2026-05-04 10:44 | 41.26183 | 69.28826 | 1428 ft | 13 kts | 86° |
| 2026-05-04 10:45 | 41.26188 | 69.28944 | 1428 ft | 12 kts | 87° |
| 2026-05-04 10:45 | 41.26197 | 69.29153 | 1428 ft | 31 kts | 86° |
| 2026-05-04 10:45 | 41.26207 | 69.29433 | 1429 ft | 28 kts | 85° |
| 2026-05-04 10:45 | 41.26217 | 69.29687 | 1429 ft | 26 kts | 88° |
| 2026-05-04 10:46 | 41.26226 | 69.29912 | 1429 ft | 19 kts | 88° |
| 2026-05-04 10:46 | 41.26223 | 69.29959 | 1429 ft | 3 kts | 110° |
| 2026-05-04 10:46 | 41.26202 | 69.29999 | 1429 ft | 9 kts | 133° |
| 2026-05-04 10:46 | 41.26133 | 69.30075 | 1429 ft | 16 kts | 141° |
| 2026-05-04 10:47 | 41.26059 | 69.30047 | 1429 ft | 8 kts | 259° |
| 2026-05-04 10:47 | 41.26058 | 69.30041 | 1429 ft | 0 kts | 262° |
| 2026-05-04 10:47 | 41.26048 | 69.29953 | 1429 ft | 40 kts | 262° |
| 2026-05-04 10:47 | 41.25962 | 69.29178 | 1429 ft | 126 kts | 262° |
| 2026-05-04 10:49 | 41.24591 | 69.16730 | 5703 ft | 237 kts | 262° |
| 2026-05-04 10:49 | 41.24345 | 69.14533 | 6494 ft | 244 kts | 262° |
| 2026-05-04 10:50 | 41.24026 | 69.12273 | 6873 ft | 248 kts | 250° |
| 2026-05-04 10:51 | 41.15567 | 69.17268 | 10766 ft | 317 kts | 94° |
| 2026-05-04 10:52 | 41.15419 | 69.20216 | 11283 ft | 333 kts | 93° |
| 2026-05-04 10:52 | 41.15263 | 69.23366 | 11833 ft | 348 kts | 94° |
| 2026-05-04 10:52 | 41.15102 | 69.26608 | 12383 ft | 362 kts | 94° |
| 2026-05-04 10:54 | 41.13793 | 69.52329 | 17084 ft | 424 kts | 94° |
| 2026-05-04 10:54 | 41.13588 | 69.56254 | 17820 ft | 428 kts | 95° |
| 2026-05-04 10:56 | 41.12062 | 69.84702 | 22725 ft | 457 kts | 95° |
| 2026-05-04 10:56 | 41.11832 | 69.88886 | 23329 ft | 461 kts | 95° |
| 2026-05-04 10:56 | 41.11597 | 69.93120 | 23900 ft | 465 kts | 95° |
| 2026-05-04 10:57 | 41.11359 | 69.97407 | 24437 ft | 469 kts | 95° |
| 2026-05-04 10:57 | 41.11116 | 70.01726 | 24989 ft | 473 kts | 96° |
| 2026-05-04 10:57 | 41.10869 | 70.06114 | 25541 ft | 478 kts | 96° |
| 2026-05-04 10:57 | 41.10619 | 70.10501 | 26081 ft | 482 kts | 96° |
| 2026-05-04 10:58 | 41.10367 | 70.14912 | 26629 ft | 487 kts | 96° |
| 2026-05-04 10:58 | 41.10146 | 70.19421 | 27168 ft | 492 kts | 92° |
| 2026-05-04 10:58 | 41.10341 | 70.23938 | 27675 ft | 500 kts | 83° |
| 2026-05-04 10:58 | 41.11067 | 70.28474 | 28203 ft | 507 kts | 75° |
| 2026-05-04 10:59 | 41.12242 | 70.32862 | 28897 ft | 508 kts | 70° |
| 2026-05-04 10:59 | 41.13497 | 70.37155 | 29776 ft | 504 kts | 70° |
| 2026-05-04 10:59 | 41.14765 | 70.41488 | 30655 ft | 499 kts | 70° |
| 2026-05-04 10:59 | 41.16000 | 70.45734 | 31430 ft | 497 kts | 70° |
| 2026-05-04 11:00 | 41.17231 | 70.49994 | 32184 ft | 495 kts | 70° |
| 2026-05-04 11:01 | 41.25682 | 70.79581 | 35345 ft | 487 kts | 70° |
| 2026-05-04 11:02 | 41.26869 | 70.83775 | 35172 ft | 483 kts | 70° |
| 2026-05-04 11:05 | 41.44462 | 71.46803 | 36386 ft | 486 kts | 70° |
| 2026-05-04 11:06 | 41.46783 | 71.55231 | 36483 ft | 486 kts | 70° |
| 2026-05-04 11:06 | 41.49110 | 71.63711 | 36545 ft | 487 kts | 70° |
| 2026-05-04 11:08 | 41.57201 | 71.93420 | 36152 ft | 487 kts | 71° |
| 2026-05-04 11:10 | 41.65214 | 72.23203 | 36096 ft | 487 kts | 71° |
| 2026-05-04 11:12 | 41.73129 | 72.52978 | 35704 ft | 485 kts | 71° |
| 2026-05-04 11:12 | 41.74262 | 72.57269 | 35911 ft | 484 kts | 71° |
| 2026-05-04 11:12 | 41.75367 | 72.61463 | 36111 ft | 485 kts | 71° |
| 2026-05-04 11:12 | 41.76494 | 72.65749 | 36313 ft | 485 kts | 71° |
| 2026-05-04 11:13 | 41.77602 | 72.69968 | 36513 ft | 485 kts | 71° |
| 2026-05-04 11:13 | 41.78723 | 72.74244 | 36680 ft | 486 kts | 71° |
| 2026-05-04 11:13 | 41.80974 | 72.82854 | 36521 ft | 491 kts | 71° |
| 2026-05-04 11:14 | 41.81358 | 72.84324 | 36453 ft | 491 kts | 71° |
| 2026-05-04 11:14 | 41.83594 | 72.92914 | 36055 ft | 488 kts | 72° |
| 2026-05-04 11:16 | 41.92097 | 73.25833 | 36638 ft | 490 kts | 72° |
| 2026-05-04 11:16 | 41.94320 | 73.34512 | 36357 ft | 493 kts | 72° |
| 2026-05-04 11:17 | 41.95419 | 73.38816 | 36163 ft | 490 kts | 72° |
| 2026-05-04 11:17 | 41.96522 | 73.43145 | 35967 ft | 490 kts | 72° |
| 2026-05-04 11:19 | 42.04195 | 73.73463 | 35012 ft | 490 kts | 72° |
| 2026-05-04 11:19 | 42.05289 | 73.77816 | 35030 ft | 489 kts | 72° |
| 2026-05-04 11:19 | 42.07601 | 73.86394 | 35050 ft | 489 kts | 71° |
| 2026-05-04 11:20 | 42.09927 | 73.94983 | 35073 ft | 489 kts | 71° |
| 2026-05-04 11:20 | 42.12249 | 74.03608 | 35204 ft | 487 kts | 71° |
| 2026-05-04 11:22 | 42.20283 | 74.33744 | 35511 ft | 490 kts | 71° |
| 2026-05-04 11:22 | 42.21429 | 74.38079 | 35384 ft | 491 kts | 71° |
| 2026-05-04 11:23 | 42.22580 | 74.42436 | 35192 ft | 491 kts | 71° |
| 2026-05-04 11:23 | 42.23728 | 74.46792 | 35069 ft | 488 kts | 71° |
| 2026-05-04 11:24 | 42.30542 | 74.72796 | 34952 ft | 488 kts | 72° |
| 2026-05-04 11:25 | 42.31652 | 74.77068 | 34941 ft | 489 kts | 72° |
| 2026-05-04 11:25 | 42.33901 | 74.85735 | 34955 ft | 489 kts | 72° |
| 2026-05-04 11:27 | 42.44313 | 75.24626 | 35078 ft | 490 kts | 65° |
| 2026-05-04 11:28 | 42.47220 | 75.32884 | 35043 ft | 491 kts | 65° |
| 2026-05-04 11:28 | 42.50112 | 75.41143 | 34962 ft | 490 kts | 65° |
| 2026-05-04 11:29 | 42.53011 | 75.49458 | 34958 ft | 489 kts | 65° |
| 2026-05-04 11:29 | 42.55912 | 75.57811 | 35094 ft | 488 kts | 65° |
| 2026-05-04 11:31 | 42.65966 | 75.86978 | 36999 ft | 489 kts | 66° |
| 2026-05-04 11:33 | 42.76047 | 76.16538 | 37231 ft | 495 kts | 66° |
| 2026-05-04 11:33 | 42.78937 | 76.25075 | 37246 ft | 495 kts | 66° |
| 2026-05-04 11:34 | 42.81799 | 76.33557 | 37328 ft | 496 kts | 66° |
| 2026-05-04 11:34 | 42.84669 | 76.42090 | 37433 ft | 497 kts | 66° |
| 2026-05-04 11:35 | 42.87540 | 76.50634 | 37511 ft | 498 kts | 66° |
| 2026-05-04 11:35 | 42.90772 | 76.59007 | 37564 ft | 498 kts | 54° |
| 2026-05-04 11:36 | 42.95606 | 76.65870 | 37508 ft | 501 kts | 37° |
| 2026-05-04 11:36 | 43.01206 | 76.71549 | 37399 ft | 501 kts | 36° |
| 2026-05-04 11:37 | 43.04018 | 76.74384 | 37195 ft | 502 kts | 36° |
| 2026-05-04 11:37 | 43.06788 | 76.77186 | 36998 ft | 500 kts | 36° |
| 2026-05-04 11:37 | 43.09572 | 76.80009 | 36802 ft | 499 kts | 36° |
| 2026-05-04 11:37 | 43.12369 | 76.82853 | 36825 ft | 494 kts | 36° |
| 2026-05-04 11:38 | 43.15137 | 76.85674 | 36997 ft | 494 kts | 36° |
| 2026-05-04 11:38 | 43.17886 | 76.88480 | 37111 ft | 496 kts | 36° |
| 2026-05-04 11:38 | 43.23468 | 76.94151 | 37091 ft | 501 kts | 36° |
| 2026-05-04 11:39 | 43.29050 | 76.99749 | 37077 ft | 501 kts | 36° |
| 2026-05-04 11:40 | 43.43446 | 77.20266 | 37088 ft | 501 kts | 57° |
| 2026-05-04 11:41 | 43.45367 | 77.24226 | 37083 ft | 502 kts | 57° |
| 2026-05-04 11:41 | 43.49240 | 77.32225 | 37064 ft | 502 kts | 56° |
| 2026-05-04 11:42 | 43.53102 | 77.40221 | 37050 ft | 503 kts | 56° |
| 2026-05-04 11:42 | 43.56385 | 77.48222 | 37046 ft | 502 kts | 69° |
| 2026-05-04 11:43 | 43.57714 | 77.54726 | 37047 ft | 500 kts | 82° |
| 2026-05-04 11:43 | 43.58023 | 77.64229 | 37048 ft | 497 kts | 92° |
| 2026-05-04 11:44 | 43.57918 | 77.73724 | 37042 ft | 497 kts | 93° |
| 2026-05-04 11:44 | 43.57793 | 77.83266 | 37042 ft | 498 kts | 93° |
| 2026-05-04 11:45 | 43.57657 | 77.92790 | 37044 ft | 498 kts | 93° |
| 2026-05-04 11:45 | 43.57509 | 78.02341 | 37047 ft | 499 kts | 93° |
| 2026-05-04 11:46 | 43.57356 | 78.11820 | 37044 ft | 499 kts | 93° |
| 2026-05-04 11:46 | 43.57194 | 78.21378 | 37044 ft | 499 kts | 93° |
| 2026-05-04 11:47 | 43.57024 | 78.30927 | 37046 ft | 499 kts | 93° |
| 2026-05-04 11:47 | 43.56847 | 78.40414 | 37056 ft | 499 kts | 93° |
| 2026-05-04 11:48 | 43.56661 | 78.49929 | 37065 ft | 499 kts | 93° |
| 2026-05-04 11:48 | 43.56466 | 78.59500 | 37088 ft | 499 kts | 93° |
| 2026-05-04 11:49 | 43.56270 | 78.68768 | 37059 ft | 499 kts | 94° |
| 2026-05-04 11:49 | 43.56059 | 78.78355 | 36957 ft | 498 kts | 94° |
| 2026-05-04 11:50 | 43.55841 | 78.87883 | 37013 ft | 499 kts | 94° |
| 2026-05-04 11:50 | 43.55617 | 78.97372 | 37073 ft | 498 kts | 94° |
| 2026-05-04 11:51 | 43.55384 | 79.06869 | 37125 ft | 499 kts | 94° |
| 2026-05-04 11:51 | 43.55143 | 79.16437 | 37115 ft | 499 kts | 94° |
| 2026-05-04 11:52 | 43.54894 | 79.25928 | 37096 ft | 499 kts | 94° |
| 2026-05-04 11:52 | 43.54636 | 79.35457 | 37090 ft | 499 kts | 94° |
| 2026-05-04 11:53 | 43.54369 | 79.45028 | 37090 ft | 500 kts | 94° |
| 2026-05-04 11:53 | 43.54095 | 79.54562 | 37090 ft | 500 kts | 94° |
| 2026-05-04 11:55 | 43.52919 | 79.92767 | 37105 ft | 501 kts | 95° |
| 2026-05-04 11:56 | 43.52604 | 80.02380 | 37118 ft | 501 kts | 95° |
| 2026-05-04 11:56 | 43.52284 | 80.11911 | 37109 ft | 502 kts | 95° |
| 2026-05-04 11:57 | 43.51955 | 80.21456 | 37083 ft | 501 kts | 95° |
| 2026-05-04 11:57 | 43.51616 | 80.31041 | 37058 ft | 502 kts | 95° |
| 2026-05-04 11:58 | 43.51270 | 80.40617 | 37030 ft | 502 kts | 95° |
| 2026-05-04 11:58 | 43.50916 | 80.50195 | 36996 ft | 502 kts | 95° |
| 2026-05-04 11:59 | 43.50554 | 80.59768 | 36945 ft | 503 kts | 95° |
| 2026-05-04 11:59 | 43.50182 | 80.69376 | 36876 ft | 502 kts | 96° |
| 2026-05-04 12:00 | 43.49896 | 80.78923 | 36799 ft | 503 kts | 94° |
| 2026-05-04 12:00 | 43.49780 | 80.88544 | 36690 ft | 503 kts | 94° |
| 2026-05-04 12:01 | 43.49648 | 80.98167 | 36572 ft | 503 kts | 94° |
| 2026-05-04 12:02 | 43.49088 | 81.31847 | 35401 ft | 502 kts | 94° |
| 2026-05-04 12:03 | 43.48906 | 81.41447 | 35602 ft | 505 kts | 94° |
| 2026-05-04 12:03 | 43.48811 | 81.46259 | 35778 ft | 506 kts | 94° |
| 2026-05-04 12:03 | 43.48716 | 81.51067 | 35952 ft | 506 kts | 94° |
| 2026-05-04 12:04 | 43.48616 | 81.55926 | 36204 ft | 506 kts | 94° |
| 2026-05-04 12:04 | 43.48517 | 81.60715 | 36404 ft | 506 kts | 94° |
| 2026-05-04 12:04 | 43.48414 | 81.65537 | 36537 ft | 506 kts | 95° |
| 2026-05-04 12:04 | 43.48307 | 81.70385 | 36645 ft | 505 kts | 95° |
| 2026-05-04 12:05 | 43.48078 | 81.80054 | 36814 ft | 505 kts | 95° |
| 2026-05-04 12:05 | 43.47841 | 81.89680 | 36953 ft | 505 kts | 95° |
| 2026-05-04 12:06 | 43.47595 | 81.99311 | 37035 ft | 506 kts | 95° |
| 2026-05-04 12:06 | 43.47340 | 82.08964 | 37037 ft | 506 kts | 95° |
| 2026-05-04 12:07 | 43.47079 | 82.18585 | 37019 ft | 507 kts | 95° |
| 2026-05-04 12:07 | 43.46807 | 82.28272 | 37014 ft | 507 kts | 95° |
| 2026-05-04 12:08 | 43.46529 | 82.37919 | 37010 ft | 507 kts | 95° |
| 2026-05-04 12:08 | 43.46242 | 82.47584 | 37009 ft | 507 kts | 95° |
| 2026-05-04 12:09 | 43.45947 | 82.57260 | 37008 ft | 508 kts | 95° |
| 2026-05-04 12:09 | 43.45641 | 82.66977 | 37098 ft | 509 kts | 96° |
| 2026-05-04 12:10 | 43.45327 | 82.76743 | 37101 ft | 508 kts | 96° |
| 2026-05-04 12:10 | 43.45009 | 82.86385 | 37102 ft | 508 kts | 96° |
| 2026-05-04 12:11 | 43.44680 | 82.96071 | 37103 ft | 509 kts | 96° |
| 2026-05-04 12:11 | 43.44341 | 83.05818 | 37071 ft | 509 kts | 96° |
| 2026-05-04 12:12 | 43.43996 | 83.15479 | 37011 ft | 509 kts | 96° |
| 2026-05-04 12:12 | 43.43644 | 83.25152 | 36935 ft | 508 kts | 96° |
| 2026-05-04 12:14 | 43.41022 | 83.63830 | 36554 ft | 510 kts | 100° |
| 2026-05-04 12:15 | 43.40186 | 83.73452 | 36401 ft | 509 kts | 101° |
| 2026-05-04 12:15 | 43.39342 | 83.83135 | 36115 ft | 512 kts | 100° |
| 2026-05-04 12:16 | 43.38922 | 83.87949 | 35890 ft | 511 kts | 100° |
| 2026-05-04 12:16 | 43.38501 | 83.92748 | 35665 ft | 510 kts | 100° |
| 2026-05-04 12:16 | 43.38077 | 83.97575 | 35481 ft | 509 kts | 100° |
| 2026-05-04 12:16 | 43.37650 | 84.02400 | 35415 ft | 510 kts | 100° |
| 2026-05-04 12:17 | 43.36785 | 84.12115 | 35314 ft | 511 kts | 100° |
| 2026-05-04 12:17 | 43.35916 | 84.21796 | 35259 ft | 512 kts | 100° |
| 2026-05-04 12:18 | 43.35041 | 84.31454 | 35255 ft | 513 kts | 100° |
| 2026-05-04 12:18 | 43.34145 | 84.41193 | 35244 ft | 513 kts | 100° |
| 2026-05-04 12:19 | 43.33229 | 84.50849 | 35220 ft | 513 kts | 100° |
| 2026-05-04 12:19 | 43.32299 | 84.60580 | 35219 ft | 514 kts | 100° |
| 2026-05-04 12:20 | 43.31370 | 84.70220 | 35231 ft | 513 kts | 101° |
| 2026-05-04 12:20 | 43.30429 | 84.79948 | 35238 ft | 514 kts | 100° |
| 2026-05-04 12:21 | 43.29486 | 84.89625 | 35149 ft | 514 kts | 100° |
| 2026-05-04 12:21 | 43.28527 | 84.99339 | 35059 ft | 515 kts | 101° |
| 2026-05-04 12:22 | 43.27549 | 85.09070 | 34984 ft | 515 kts | 101° |
| 2026-05-04 12:22 | 43.26571 | 85.18782 | 34935 ft | 515 kts | 100° |
| 2026-05-04 12:23 | 43.25585 | 85.28475 | 34898 ft | 516 kts | 101° |
| 2026-05-04 12:23 | 43.24591 | 85.38172 | 34881 ft | 517 kts | 100° |
| 2026-05-04 12:24 | 43.23592 | 85.47923 | 34876 ft | 518 kts | 101° |
| 2026-05-04 12:24 | 43.22563 | 85.57722 | 34872 ft | 518 kts | 101° |
| 2026-05-04 12:25 | 43.21537 | 85.67447 | 34874 ft | 518 kts | 102° |
| 2026-05-04 12:25 | 43.20498 | 85.77231 | 34875 ft | 518 kts | 102° |
| 2026-05-04 12:26 | 43.19508 | 85.86995 | 34863 ft | 520 kts | 97° |
| 2026-05-04 12:26 | 43.19979 | 85.96929 | 34854 ft | 526 kts | 79° |
| 2026-05-04 12:27 | 43.22538 | 86.06297 | 34856 ft | 528 kts | 60° |
| 2026-05-04 12:27 | 43.26536 | 86.14711 | 34901 ft | 528 kts | 55° |
| 2026-05-04 12:28 | 43.30650 | 86.23093 | 34940 ft | 530 kts | 55° |
| 2026-05-04 12:28 | 43.34792 | 86.31506 | 34946 ft | 533 kts | 55° |
| 2026-05-04 12:29 | 43.38911 | 86.39935 | 34944 ft | 533 kts | 55° |
| 2026-05-04 12:29 | 43.43005 | 86.48353 | 34965 ft | 533 kts | 55° |
| 2026-05-04 12:30 | 43.47131 | 86.56802 | 35039 ft | 532 kts | 54° |
| 2026-05-04 12:30 | 43.51248 | 86.65260 | 35192 ft | 532 kts | 55° |
| 2026-05-04 12:31 | 43.55362 | 86.73760 | 35361 ft | 533 kts | 56° |
| 2026-05-04 12:31 | 43.57390 | 86.78027 | 35518 ft | 531 kts | 56° |
| 2026-05-04 12:31 | 43.59434 | 86.82345 | 35727 ft | 533 kts | 56° |
| 2026-05-04 12:32 | 43.61457 | 86.86624 | 35934 ft | 534 kts | 56° |
| 2026-05-04 12:32 | 43.65494 | 86.95179 | 36313 ft | 534 kts | 56° |
| 2026-05-04 12:32 | 43.67530 | 86.99501 | 36492 ft | 535 kts | 56° |
| 2026-05-04 12:33 | 43.69553 | 87.03801 | 36647 ft | 537 kts | 56° |
| 2026-05-04 12:33 | 43.73622 | 87.12472 | 36833 ft | 537 kts | 56° |
| 2026-05-04 12:34 | 43.77654 | 87.21100 | 36988 ft | 539 kts | 56° |
| 2026-05-04 12:34 | 43.81723 | 87.29837 | 37051 ft | 540 kts | 56° |
| 2026-05-04 12:35 | 43.85769 | 87.38547 | 37026 ft | 540 kts | 56° |
| 2026-05-04 12:35 | 43.89800 | 87.47254 | 37008 ft | 540 kts | 56° |
| 2026-05-04 12:36 | 43.94027 | 87.55885 | 36990 ft | 539 kts | 50° |
| 2026-05-04 12:36 | 43.98570 | 87.64040 | 36974 ft | 539 kts | 50° |
| 2026-05-04 12:37 | 44.03146 | 87.72322 | 36955 ft | 540 kts | 51° |
| 2026-05-04 12:37 | 44.07681 | 87.80595 | 36959 ft | 539 kts | 51° |
| 2026-05-04 12:38 | 44.12206 | 87.88901 | 36962 ft | 539 kts | 51° |
| 2026-05-04 12:38 | 44.16330 | 87.97640 | 36962 ft | 542 kts | 64° |
| 2026-05-04 12:39 | 44.18681 | 88.07546 | 36972 ft | 542 kts | 78° |
| 2026-05-04 12:39 | 44.20238 | 88.17783 | 36977 ft | 542 kts | 79° |
| 2026-05-04 12:40 | 44.21765 | 88.28029 | 36981 ft | 542 kts | 79° |
| 2026-05-04 12:40 | 44.23287 | 88.38323 | 36971 ft | 542 kts | 79° |
| 2026-05-04 12:41 | 44.24809 | 88.48694 | 36961 ft | 543 kts | 79° |
| 2026-05-04 12:41 | 44.26296 | 88.58903 | 36959 ft | 543 kts | 79° |
| 2026-05-04 12:42 | 44.27294 | 88.65794 | 36960 ft | 543 kts | 79° |